Urb Rivera Donato, Puerto Rico
Current Conditions -  °F | °C
As of 11:53 AM on Thursday 29 Jan 2015 (Local Time) from TJNR Reporting Station
Broken Clouds Broken Clouds  
Wind Chill: 82°   Ceiling: 8000
Heat Index: 86°   Visibility: 10mi
Dew Point: 70°   Wind: 9mph
Humidity: 67%   Direction: 90°E
Pressure: 30.06"   Gusts: NA
Location:  18.1494°N, 65.8294°W
Report Text: TJNR 291553Z AUTO 09008KT 10SM BKN080 28/21 A3006 RMK AO2 SLP179 T02780211 $
Loading
Personal Weather Stations






























Interactive Weather Map New forecast layout! Learn more

10-Day Weather Forecast

Advertisements
Track Severe Weather on mobile